createdAt,value
2023-05-20T00:00:17.566Z,0.00
2023-05-20T00:01:17.569Z,0.00
2023-05-20T00:02:17.177Z,0.00
2023-05-20T00:03:17.398Z,0.00
2023-05-20T00:04:17.165Z,0.00
2023-05-20T00:05:17.617Z,0.00
2023-05-20T00:06:17.191Z,0.00
2023-05-20T00:07:16.987Z,0.00
2023-05-20T00:08:17.007Z,0.00
2023-05-20T00:09:16.959Z,0.00
2023-05-20T00:10:16.992Z,0.00
2023-05-20T00:11:17.984Z,0.00
2023-05-20T00:12:16.950Z,0.00
2023-05-20T00:13:16.978Z,0.00
2023-05-20T00:14:16.968Z,0.00
2023-05-20T00:15:16.900Z,0.00
2023-05-20T00:16:17.124Z,0.00
2023-05-20T00:17:16.885Z,0.00
2023-05-20T00:18:16.872Z,0.00
2023-05-20T00:19:20.841Z,0.00
2023-05-20T00:20:17.201Z,0.00
2023-05-20T00:21:16.833Z,0.00
2023-05-20T00:22:16.834Z,0.00
2023-05-20T00:23:16.803Z,0.00
2023-05-20T00:24:16.808Z,0.00
2023-05-20T00:25:16.961Z,0.00
2023-05-20T00:26:16.797Z,0.00
2023-05-20T00:27:16.760Z,0.00
2023-05-20T00:28:16.765Z,0.00
2023-05-20T00:29:16.753Z,0.00
2023-05-20T00:30:16.918Z,0.00
2023-05-20T00:31:16.710Z,0.00
2023-05-20T00:32:16.796Z,0.00
2023-05-20T00:33:16.757Z,0.00
2023-05-20T00:34:16.692Z,0.00
2023-05-20T00:35:16.669Z,0.00
2023-05-20T00:36:16.859Z,0.00
2023-05-20T00:37:16.812Z,0.00
2023-05-20T00:38:16.665Z,0.00
2023-05-20T00:39:16.616Z,0.00
2023-05-20T00:40:16.643Z,0.00
2023-05-20T00:41:16.994Z,0.00
2023-05-20T00:42:16.596Z,0.00
2023-05-20T00:43:16.716Z,0.00
2023-05-20T00:44:16.571Z,0.00
2023-05-20T00:45:16.553Z,0.00
2023-05-20T00:46:16.585Z,0.00
2023-05-20T00:47:16.534Z,0.00
2023-05-20T00:48:16.530Z,0.00
2023-05-20T00:49:16.693Z,0.00
2023-05-20T00:50:16.494Z,0.00
2023-05-20T00:51:16.494Z,0.00
2023-05-20T00:52:16.469Z,0.00
2023-05-20T00:53:16.470Z,0.00
2023-05-20T00:54:16.606Z,0.00
2023-05-20T00:55:16.450Z,0.00
2023-05-20T00:56:17.006Z,0.00
2023-05-20T00:57:17.014Z,0.00
2023-05-20T00:58:16.408Z,0.00
2023-05-20T00:59:16.412Z,0.00
2023-05-20T01:00:16.369Z,0.00
2023-05-20T01:01:17.055Z,0.00
2023-05-20T01:02:16.363Z,0.00
2023-05-20T01:03:16.456Z,0.00
2023-05-20T01:04:16.335Z,0.00
2023-05-20T01:05:16.501Z,0.00
2023-05-20T01:06:16.307Z,0.00
2023-05-20T01:07:16.308Z,0.00
2023-05-20T01:08:16.513Z,0.00
2023-05-20T01:09:16.554Z,0.00
2023-05-20T01:10:16.253Z,0.00
2023-05-20T01:11:16.427Z,0.00
2023-05-20T01:12:16.644Z,0.00
2023-05-20T01:13:16.244Z,0.00
2023-05-20T01:14:16.685Z,0.00
2023-05-20T01:15:16.755Z,0.00
2023-05-20T01:16:16.792Z,0.00
2023-05-20T01:17:16.765Z,0.00
2023-05-20T01:18:16.796Z,0.00
2023-05-20T01:19:16.196Z,0.00
2023-05-20T01:20:16.156Z,0.00
2023-05-20T01:21:16.889Z,0.00
2023-05-20T01:22:16.242Z,0.00
2023-05-20T01:23:16.155Z,0.00
2023-05-20T01:24:16.953Z,0.00
2023-05-20T01:25:17.012Z,0.00
2023-05-20T01:26:16.238Z,0.00
2023-05-20T01:27:17.029Z,0.00
2023-05-20T01:28:16.052Z,0.00
2023-05-20T01:29:16.073Z,0.00
2023-05-20T01:30:16.045Z,0.00
2023-05-20T01:31:16.253Z,0.00
2023-05-20T01:32:16.898Z,0.00
2023-05-20T01:33:16.047Z,0.00
2023-05-20T01:34:16.005Z,0.00
2023-05-20T01:35:15.990Z,0.00
2023-05-20T01:36:17.042Z,0.00
2023-05-20T01:37:16.047Z,0.00
2023-05-20T01:38:15.962Z,0.00
2023-05-20T01:39:15.939Z,0.00
2023-05-20T01:40:17.055Z,0.00
2023-05-20T01:41:16.084Z,0.00
2023-05-20T01:42:15.890Z,0.00
2023-05-20T01:43:17.606Z,0.00
2023-05-20T01:44:15.982Z,0.00
2023-05-20T01:45:15.942Z,0.00
2023-05-20T01:46:16.039Z,0.00
2023-05-20T01:47:16.015Z,0.00
2023-05-20T01:48:16.056Z,0.00
2023-05-20T01:49:15.841Z,0.00
2023-05-20T01:50:15.848Z,0.00
2023-05-20T01:51:15.889Z,0.00
2023-05-20T01:52:16.051Z,0.00
2023-05-20T01:53:15.789Z,0.00
2023-05-20T01:54:15.762Z,0.00
2023-05-20T01:55:15.763Z,0.00
2023-05-20T01:56:15.743Z,0.00
2023-05-20T01:57:15.932Z,0.00
2023-05-20T01:58:15.710Z,0.00
2023-05-20T01:59:15.878Z,0.00
2023-05-20T02:00:15.980Z,0.00
2023-05-20T02:01:15.734Z,0.00
2023-05-20T02:02:15.727Z,0.00
2023-05-20T02:03:15.995Z,0.00
2023-05-20T02:04:15.654Z,0.00
2023-05-20T02:05:15.835Z,0.00
2023-05-20T02:06:16.132Z,0.00
2023-05-20T02:07:15.625Z,0.00
2023-05-20T02:08:16.175Z,0.00
2023-05-20T02:09:16.062Z,0.00
2023-05-20T02:10:15.593Z,0.00
2023-05-20T02:11:15.751Z,0.00
2023-05-20T02:12:15.566Z,0.00
2023-05-20T02:13:15.563Z,0.00
2023-05-20T02:14:15.715Z,0.00
2023-05-20T02:15:16.065Z,0.00
2023-05-20T02:16:16.441Z,0.00
2023-05-20T02:17:16.085Z,0.00
2023-05-20T02:18:16.078Z,0.00
2023-05-20T02:19:15.741Z,0.00
2023-05-20T02:20:15.460Z,0.00
2023-05-20T02:21:16.091Z,0.00
2023-05-20T02:22:15.441Z,0.00
2023-05-20T02:23:15.439Z,0.00
2023-05-20T02:24:15.944Z,0.00
2023-05-20T02:25:15.586Z,0.00
2023-05-20T02:26:15.410Z,0.00
2023-05-20T02:27:15.411Z,0.00
2023-05-20T02:28:15.554Z,0.00
2023-05-20T02:29:15.382Z,0.00
2023-05-20T02:30:15.555Z,0.00
2023-05-20T02:31:15.358Z,0.00
2023-05-20T02:32:15.558Z,0.00
2023-05-20T02:33:16.172Z,0.00
2023-05-20T02:34:16.048Z,0.00
2023-05-20T02:35:15.411Z,0.00
2023-05-20T02:36:15.458Z,0.00
2023-05-20T02:37:16.108Z,0.00
2023-05-20T02:38:15.455Z,0.00
2023-05-20T02:39:15.276Z,0.00
2023-05-20T02:40:15.321Z,0.00
2023-05-20T02:41:16.127Z,0.00
2023-05-20T02:42:15.385Z,0.00
2023-05-20T02:43:15.429Z,0.00
2023-05-20T02:44:15.214Z,0.00
2023-05-20T02:45:15.229Z,0.00
2023-05-20T02:46:15.266Z,0.00
2023-05-20T02:47:15.346Z,0.00
2023-05-20T02:48:15.210Z,0.00
2023-05-20T02:49:15.291Z,0.00
2023-05-20T02:50:15.297Z,0.00
2023-05-20T02:51:15.134Z,0.00
2023-05-20T02:52:15.122Z,0.00
2023-05-20T02:53:15.109Z,0.00
2023-05-20T02:54:15.109Z,0.00
2023-05-20T02:55:15.116Z,0.00
2023-05-20T02:56:15.497Z,0.00
2023-05-20T02:57:15.114Z,0.00
2023-05-20T02:58:15.116Z,0.00
2023-05-20T02:59:15.104Z,0.00
2023-05-20T03:00:15.613Z,0.00
2023-05-20T03:01:15.203Z,0.00
2023-05-20T03:02:15.088Z,0.00
2023-05-20T03:03:15.206Z,0.00
2023-05-20T03:04:15.250Z,0.00
2023-05-20T03:05:15.124Z,0.00
2023-05-20T03:06:14.953Z,0.00
2023-05-20T03:07:15.152Z,0.00
2023-05-20T03:08:15.122Z,0.00
2023-05-20T03:09:14.956Z,0.00
2023-05-20T03:10:15.153Z,0.00
2023-05-20T03:11:14.905Z,4.00
2023-05-20T03:12:15.147Z,4.00
2023-05-20T03:13:14.903Z,0.00
2023-05-20T03:14:14.868Z,0.00
2023-05-20T03:15:15.033Z,4.00
2023-05-20T03:16:15.255Z,0.00
2023-05-20T03:17:15.178Z,4.00
2023-05-20T03:18:14.976Z,4.00
2023-05-20T03:19:15.169Z,4.00
2023-05-20T03:20:15.122Z,4.00
2023-05-20T03:21:14.803Z,8.00
2023-05-20T03:22:15.168Z,4.00
2023-05-20T03:23:15.201Z,8.00
2023-05-20T03:24:15.126Z,8.00
2023-05-20T03:25:15.224Z,8.00
2023-05-20T03:26:15.130Z,8.00
2023-05-20T03:27:14.723Z,12.00
2023-05-20T03:28:14.754Z,12.00
2023-05-20T03:29:14.775Z,16.00
2023-05-20T03:30:14.841Z,12.00
2023-05-20T03:31:14.870Z,16.00
2023-05-20T03:32:14.863Z,16.00
2023-05-20T03:33:14.900Z,20.00
2023-05-20T03:34:14.944Z,20.00
2023-05-20T03:35:14.942Z,24.00
2023-05-20T03:36:15.006Z,24.00
2023-05-20T03:37:14.804Z,28.00
2023-05-20T03:38:14.580Z,28.00
2023-05-20T03:39:14.588Z,32.00
2023-05-20T03:40:14.616Z,36.00
2023-05-20T03:41:14.738Z,40.00
2023-05-20T03:42:14.539Z,40.00
2023-05-20T03:43:14.726Z,40.00
2023-05-20T03:44:14.818Z,44.00
2023-05-20T03:45:14.838Z,48.00
2023-05-20T03:46:14.516Z,48.00
2023-05-20T03:47:14.675Z,56.00
2023-05-20T03:48:14.659Z,60.00
2023-05-20T03:49:14.476Z,64.00
2023-05-20T03:50:14.655Z,68.00
2023-05-20T03:51:14.446Z,72.00
2023-05-20T03:52:14.723Z,72.00
2023-05-20T03:53:14.937Z,80.00
2023-05-20T03:54:14.562Z,80.00
2023-05-20T03:55:14.682Z,88.00
2023-05-20T03:56:14.373Z,88.00
2023-05-20T03:57:15.160Z,96.00
2023-05-20T03:58:14.525Z,96.00
2023-05-20T03:59:14.721Z,100.00
2023-05-20T04:00:14.813Z,104.00
2023-05-20T04:01:15.039Z,108.00
2023-05-20T04:02:14.332Z,104.00
2023-05-20T04:03:15.274Z,108.00
2023-05-20T04:04:14.554Z,112.00
2023-05-20T04:05:14.295Z,108.00
2023-05-20T04:06:14.254Z,112.00
2023-05-20T04:07:14.450Z,108.00
2023-05-20T04:08:15.158Z,104.00
2023-05-20T04:09:14.244Z,104.00
2023-05-20T04:10:14.215Z,100.00
2023-05-20T04:11:15.095Z,100.00
2023-05-20T04:12:14.185Z,100.00
2023-05-20T04:13:15.132Z,104.00
2023-05-20T04:14:15.158Z,108.00
2023-05-20T04:15:14.344Z,108.00
2023-05-20T04:16:14.199Z,112.00
2023-05-20T04:17:14.231Z,116.00
2023-05-20T04:18:14.197Z,124.00
2023-05-20T04:19:14.361Z,132.00
2023-05-20T04:20:14.167Z,140.00
2023-05-20T04:21:14.121Z,144.00
2023-05-20T04:22:14.075Z,144.00
2023-05-20T04:23:14.403Z,140.00
2023-05-20T04:24:35.211Z,136.00
2023-05-20T04:25:14.479Z,128.00
2023-05-20T04:26:14.496Z,120.00
2023-05-20T04:27:14.249Z,112.00
2023-05-20T04:28:14.086Z,104.00
2023-05-20T04:29:14.062Z,100.00
2023-05-20T04:30:13.989Z,96.00
2023-05-20T04:31:13.983Z,92.00
2023-05-20T04:32:14.170Z,96.00
2023-05-20T04:33:14.187Z,96.00
2023-05-20T04:34:14.194Z,92.00
2023-05-20T04:35:14.297Z,92.00
2023-05-20T04:36:13.927Z,92.00
2023-05-20T04:37:14.075Z,96.00
2023-05-20T04:38:14.087Z,92.00
2023-05-20T04:39:13.927Z,96.00
2023-05-20T04:40:14.200Z,92.00
2023-05-20T04:41:14.191Z,96.00
2023-05-20T04:42:13.847Z,100.00
2023-05-20T04:43:14.026Z,100.00
2023-05-20T04:44:14.190Z,100.00
2023-05-20T04:45:13.844Z,104.00
2023-05-20T04:46:13.816Z,104.00
2023-05-20T04:47:13.806Z,108.00
2023-05-20T04:48:14.171Z,112.00
2023-05-20T04:49:13.792Z,112.00
2023-05-20T04:50:13.810Z,116.00
2023-05-20T04:51:13.758Z,120.00
2023-05-20T04:52:13.737Z,128.00
2023-05-20T04:53:13.943Z,132.00
2023-05-20T04:54:13.717Z,136.00
2023-05-20T04:55:13.738Z,144.00
2023-05-20T04:56:13.956Z,148.00
2023-05-20T04:57:14.201Z,160.00
2023-05-20T04:58:13.671Z,172.00
2023-05-20T04:59:14.268Z,184.00
2023-05-20T05:00:13.710Z,192.00
2023-05-20T05:01:13.659Z,208.00
2023-05-20T05:02:13.624Z,220.00
2023-05-20T05:03:13.674Z,228.00
2023-05-20T05:04:13.603Z,240.00
2023-05-20T05:05:14.222Z,252.00
2023-05-20T05:06:13.599Z,264.00
2023-05-20T05:07:13.567Z,280.00
2023-05-20T05:08:13.574Z,292.00
2023-05-20T05:09:13.543Z,316.00
2023-05-20T05:10:13.707Z,340.00
2023-05-20T05:11:13.542Z,356.00
2023-05-20T05:12:13.950Z,380.00
2023-05-20T05:13:13.499Z,416.00
2023-05-20T05:14:13.505Z,464.00
2023-05-20T05:15:13.477Z,508.00
2023-05-20T05:16:13.553Z,552.00
2023-05-20T05:17:13.483Z,584.00
2023-05-20T05:18:13.467Z,604.00
2023-05-20T05:19:13.551Z,636.00
2023-05-20T05:20:14.224Z,668.00
2023-05-20T05:21:13.413Z,692.00
2023-05-20T05:22:13.414Z,700.00
2023-05-20T05:23:13.388Z,708.00
2023-05-20T05:24:13.391Z,712.00
2023-05-20T05:25:13.368Z,724.00
2023-05-20T05:26:13.529Z,772.00
2023-05-20T05:27:13.637Z,792.00
2023-05-20T05:28:13.670Z,832.00
2023-05-20T05:29:13.328Z,856.00
2023-05-20T05:30:13.332Z,852.00
2023-05-20T05:31:13.287Z,856.00
2023-05-20T05:32:13.441Z,812.00
2023-05-20T05:33:13.289Z,792.00
2023-05-20T05:34:13.278Z,768.00
2023-05-20T05:35:13.250Z,760.00
2023-05-20T05:36:13.244Z,740.00
2023-05-20T05:37:13.217Z,732.00
2023-05-20T05:38:13.229Z,704.00
2023-05-20T05:39:13.207Z,680.00
2023-05-20T05:40:13.216Z,648.00
2023-05-20T05:41:13.356Z,624.00
2023-05-20T05:42:13.178Z,616.00
2023-05-20T05:43:13.238Z,592.00
2023-05-20T05:44:13.247Z,568.00
2023-05-20T05:45:13.158Z,552.00
2023-05-20T05:46:13.307Z,548.00
2023-05-20T05:47:13.184Z,552.00
2023-05-20T05:48:14.239Z,548.00
2023-05-20T05:49:13.109Z,540.00
2023-05-20T05:50:13.112Z,532.00
2023-05-20T05:51:13.268Z,512.00
2023-05-20T05:52:13.261Z,512.00
2023-05-20T05:53:13.036Z,516.00
2023-05-20T05:54:13.061Z,520.00
2023-05-20T05:55:13.030Z,528.00
2023-05-20T05:56:13.181Z,528.00
2023-05-20T05:57:12.993Z,536.00
2023-05-20T05:58:13.040Z,516.00
2023-05-20T05:59:12.970Z,520.00
2023-05-20T06:00:12.972Z,536.00
2023-05-20T06:01:12.953Z,544.00
2023-05-20T06:02:13.182Z,556.00
2023-05-20T06:03:13.027Z,568.00
2023-05-20T06:04:12.944Z,592.00
2023-05-20T06:05:12.897Z,612.00
2023-05-20T06:06:12.892Z,672.00
2023-05-20T06:07:13.057Z,888.00
2023-05-20T06:08:13.068Z,728.00
2023-05-20T06:09:12.857Z,740.00
2023-05-20T06:10:12.854Z,736.00
2023-05-20T06:11:12.823Z,788.00
2023-05-20T06:12:14.123Z,956.00
2023-05-20T06:13:12.804Z,1136.00
2023-05-20T06:14:12.812Z,1204.00
2023-05-20T06:15:12.781Z,1140.00
2023-05-20T06:16:12.806Z,1096.00
2023-05-20T06:17:12.767Z,1084.00
2023-05-20T06:18:12.931Z,1092.00
2023-05-20T06:19:12.966Z,1944.00
2023-05-20T06:20:12.749Z,1028.00
2023-05-20T06:21:12.696Z,992.00
2023-05-20T06:22:12.718Z,964.00
2023-05-20T06:23:12.854Z,968.00
2023-05-20T06:24:12.860Z,1016.00
2023-05-20T06:25:12.667Z,1092.00
2023-05-20T06:26:12.661Z,1312.00
2023-05-20T06:27:12.853Z,1524.00
2023-05-20T06:28:12.672Z,1328.00
2023-05-20T06:29:12.658Z,1436.00
2023-05-20T06:30:12.633Z,1580.00
2023-05-20T06:31:12.726Z,2320.00
2023-05-20T06:32:12.604Z,2148.00
2023-05-20T06:33:12.576Z,1776.00
2023-05-20T06:34:12.579Z,1752.00
2023-05-20T06:35:12.603Z,1692.00
2023-05-20T06:36:12.575Z,1728.00
2023-05-20T06:37:12.535Z,5092.00
2023-05-20T06:38:12.553Z,2124.00
2023-05-20T06:39:12.757Z,1860.00
2023-05-20T06:40:12.508Z,2188.00
2023-05-20T06:41:12.653Z,3668.00
2023-05-20T06:42:12.498Z,4604.00
2023-05-20T06:43:12.460Z,4424.00
2023-05-20T06:44:12.473Z,3220.00
2023-05-20T06:45:12.450Z,4860.00
2023-05-20T06:46:12.510Z,6656.00
2023-05-20T06:47:13.169Z,5784.00
2023-05-20T06:48:13.155Z,4568.00
2023-05-20T06:49:12.421Z,3496.00
2023-05-20T06:50:12.413Z,3112.00
2023-05-20T06:51:12.367Z,3844.00
2023-05-20T06:52:13.287Z,3224.00
2023-05-20T06:53:13.293Z,2688.00
2023-05-20T06:54:12.521Z,2608.00
2023-05-20T06:55:13.174Z,2312.00
2023-05-20T06:56:12.354Z,2204.00
2023-05-20T06:57:13.107Z,2304.00
2023-05-20T06:58:12.301Z,2340.00
2023-05-20T06:59:12.448Z,2340.00
2023-05-20T07:00:12.311Z,2692.00
2023-05-20T07:01:12.293Z,2872.00
2023-05-20T07:02:12.332Z,3240.00
2023-05-20T07:03:12.344Z,2792.00
2023-05-20T07:04:12.914Z,3092.00
2023-05-20T07:05:12.315Z,3860.00
2023-05-20T07:06:12.214Z,5368.00
2023-05-20T07:07:34.044Z,4972.00
2023-05-20T07:08:12.321Z,2800.00
2023-05-20T07:09:12.324Z,2660.00
2023-05-20T07:10:12.168Z,2616.00
2023-05-20T07:11:12.161Z,4016.00
2023-05-20T07:12:12.326Z,2892.00
2023-05-20T07:13:12.129Z,2692.00
2023-05-20T07:14:12.302Z,2972.00
2023-05-20T07:15:12.093Z,2548.00
2023-05-20T07:16:12.338Z,2536.00
2023-05-20T07:17:12.180Z,2492.00
2023-05-20T07:18:12.109Z,2668.00
2023-05-20T07:19:12.362Z,2728.00
2023-05-20T07:20:12.245Z,2684.00
2023-05-20T07:21:12.213Z,2736.00
2023-05-20T07:22:12.024Z,2932.00
2023-05-20T07:23:13.935Z,3112.00
2023-05-20T07:24:12.336Z,8836.00
2023-05-20T07:25:12.322Z,5312.00
2023-05-20T07:26:12.147Z,3800.00
2023-05-20T07:27:12.327Z,4472.00
2023-05-20T07:28:11.979Z,10144.00
2023-05-20T07:29:12.327Z,5504.00
2023-05-20T07:30:11.951Z,7752.00
2023-05-20T07:31:12.107Z,5688.00
2023-05-20T07:32:12.330Z,8336.00
2023-05-20T07:33:11.891Z,12364.00
2023-05-20T07:34:12.054Z,6712.00
2023-05-20T07:35:12.334Z,5520.00
2023-05-20T07:36:12.048Z,4896.00
2023-05-20T07:37:11.840Z,10664.00
2023-05-20T07:38:11.858Z,8956.00
2023-05-20T07:39:14.995Z,12732.00
2023-05-20T07:40:11.847Z,5956.00
2023-05-20T07:41:11.856Z,8232.00
2023-05-20T07:42:11.802Z,8332.00
2023-05-20T07:43:11.781Z,8104.00
2023-05-20T07:44:11.812Z,5768.00
2023-05-20T07:45:11.801Z,6276.00
2023-05-20T07:46:11.815Z,5616.00
2023-05-20T07:47:11.735Z,5748.00
2023-05-20T07:48:12.392Z,5520.00
2023-05-20T07:49:12.200Z,5600.00
2023-05-20T07:50:12.332Z,7708.00
2023-05-20T07:51:12.351Z,6044.00
2023-05-20T07:52:11.685Z,11776.00
2023-05-20T07:53:11.699Z,22464.00
2023-05-20T07:54:11.676Z,22400.00
2023-05-20T07:55:11.644Z,15808.00
2023-05-20T07:56:11.699Z,4852.00
2023-05-20T07:57:11.643Z,3452.00
2023-05-20T07:58:11.646Z,3416.00
2023-05-20T07:59:11.824Z,3516.00
2023-05-20T08:00:11.595Z,3268.00
2023-05-20T08:01:11.911Z,2836.00
2023-05-20T08:02:11.669Z,2900.00
2023-05-20T08:03:11.773Z,3060.00
2023-05-20T08:04:12.086Z,3020.00
2023-05-20T08:05:12.019Z,2900.00
2023-05-20T08:06:11.534Z,2944.00
2023-05-20T08:07:12.076Z,2664.00
2023-05-20T08:08:11.566Z,2568.00
2023-05-20T08:09:11.483Z,2560.00
2023-05-20T08:10:12.205Z,2580.00
2023-05-20T08:11:12.196Z,2592.00
2023-05-20T08:12:12.227Z,2552.00
2023-05-20T08:13:12.250Z,2860.00
2023-05-20T08:14:12.208Z,2792.00
2023-05-20T08:15:12.314Z,3272.00
2023-05-20T08:16:11.971Z,2988.00
2023-05-20T08:17:11.691Z,2912.00
2023-05-20T08:18:11.462Z,2796.00
2023-05-20T08:19:11.445Z,2680.00
2023-05-20T08:20:11.371Z,2636.00
2023-05-20T08:21:11.364Z,2556.00
2023-05-20T08:22:11.331Z,2576.00
2023-05-20T08:23:11.354Z,2612.00
2023-05-20T08:24:11.353Z,2568.00
2023-05-20T08:25:11.349Z,2440.00
2023-05-20T08:26:11.297Z,2372.00
2023-05-20T08:27:11.300Z,2764.00
2023-05-20T08:28:11.280Z,2748.00
2023-05-20T08:29:11.372Z,2888.00
2023-05-20T08:30:11.402Z,2600.00
2023-05-20T08:31:11.643Z,2488.00
2023-05-20T08:32:12.056Z,2968.00
2023-05-20T08:33:11.265Z,2484.00
2023-05-20T08:34:11.233Z,2172.00
2023-05-20T08:35:11.276Z,2364.00
2023-05-20T08:36:11.256Z,2448.00
2023-05-20T08:37:11.270Z,2256.00
2023-05-20T08:38:11.187Z,2788.00
2023-05-20T08:39:11.366Z,2680.00
2023-05-20T08:40:11.416Z,2884.00
2023-05-20T08:41:11.119Z,2280.00
2023-05-20T08:42:11.151Z,1952.00
2023-05-20T08:43:11.374Z,2180.00
2023-05-20T08:44:11.130Z,1844.00
2023-05-20T08:45:11.083Z,2172.00
2023-05-20T08:46:11.178Z,1776.00
2023-05-20T08:47:11.188Z,2160.00
2023-05-20T08:48:11.135Z,1508.00
2023-05-20T08:49:11.040Z,1712.00
2023-05-20T08:50:11.032Z,1356.00
2023-05-20T08:51:11.281Z,1456.00
2023-05-20T08:52:11.023Z,1536.00
2023-05-20T08:53:11.003Z,1680.00
2023-05-20T08:54:11.023Z,1640.00
2023-05-20T08:55:11.398Z,1596.00
2023-05-20T08:56:10.980Z,1548.00
2023-05-20T08:57:10.961Z,1624.00
2023-05-20T08:58:10.952Z,1656.00
2023-05-20T08:59:10.947Z,1712.00
2023-05-20T09:00:10.934Z,1756.00
2023-05-20T09:01:10.962Z,1752.00
2023-05-20T09:02:11.477Z,1928.00
2023-05-20T09:03:10.922Z,2388.00
2023-05-20T09:04:10.890Z,1964.00
2023-05-20T09:05:10.934Z,1932.00
2023-05-20T09:06:10.879Z,1800.00
2023-05-20T09:07:10.867Z,2236.00
2023-05-20T09:08:10.842Z,2508.00
2023-05-20T09:09:10.810Z,1864.00
2023-05-20T09:10:11.415Z,2580.00
2023-05-20T09:11:10.821Z,2036.00
2023-05-20T09:12:10.806Z,1904.00
2023-05-20T09:13:10.756Z,1468.00
2023-05-20T09:14:11.412Z,1452.00
2023-05-20T09:15:10.759Z,1492.00
2023-05-20T09:16:10.886Z,1452.00
2023-05-20T09:17:10.761Z,1540.00
2023-05-20T09:18:10.770Z,1484.00
2023-05-20T09:19:10.950Z,1468.00
2023-05-20T09:20:10.790Z,1488.00
2023-05-20T09:21:10.679Z,1508.00
2023-05-20T09:22:10.698Z,1556.00
2023-05-20T09:23:10.682Z,1944.00
2023-05-20T09:24:10.748Z,1900.00
2023-05-20T09:25:10.645Z,1432.00
2023-05-20T09:26:10.625Z,1688.00
2023-05-20T09:27:11.057Z,1344.00
2023-05-20T09:28:11.205Z,1556.00
2023-05-20T09:29:10.613Z,1796.00
2023-05-20T09:30:10.582Z,1796.00
2023-05-20T09:31:10.608Z,1548.00
2023-05-20T09:32:11.490Z,1024.00
2023-05-20T09:33:11.201Z,1016.00
2023-05-20T09:34:10.832Z,1032.00
2023-05-20T09:35:11.178Z,1152.00
2023-05-20T09:36:10.496Z,1168.00
2023-05-20T09:37:10.535Z,1160.00
2023-05-20T09:38:10.493Z,1172.00
2023-05-20T09:39:10.591Z,1164.00
2023-05-20T09:40:10.453Z,1208.00
2023-05-20T09:41:10.608Z,1208.00
2023-05-20T09:42:10.464Z,1224.00
2023-05-20T09:43:10.431Z,1260.00
2023-05-20T09:44:10.406Z,1304.00
2023-05-20T09:45:10.428Z,1396.00
2023-05-20T09:46:10.500Z,1372.00
2023-05-20T09:47:10.677Z,1360.00
2023-05-20T09:48:10.412Z,1360.00
2023-05-20T09:49:10.361Z,1352.00
2023-05-20T09:50:10.345Z,1344.00
2023-05-20T09:51:10.353Z,1396.00
2023-05-20T09:52:10.344Z,1312.00
2023-05-20T09:53:10.313Z,1292.00
2023-05-20T09:54:10.291Z,1352.00
2023-05-20T09:55:10.463Z,1376.00
2023-05-20T09:56:10.272Z,1376.00
2023-05-20T09:57:10.318Z,1384.00
2023-05-20T09:58:10.315Z,1336.00
2023-05-20T09:59:10.347Z,1460.00
2023-05-20T10:00:10.219Z,1328.00
2023-05-20T10:01:10.274Z,1276.00
2023-05-20T10:02:10.270Z,1276.00
2023-05-20T10:03:10.287Z,1276.00
2023-05-20T10:04:10.181Z,1300.00
2023-05-20T10:05:10.449Z,1272.00
2023-05-20T10:06:10.166Z,1424.00
2023-05-20T10:07:10.457Z,1204.00
2023-05-20T10:08:10.133Z,1120.00
2023-05-20T10:09:10.171Z,1088.00
2023-05-20T10:10:10.132Z,1096.00
2023-05-20T10:11:10.122Z,1124.00
2023-05-20T10:12:10.104Z,1100.00
2023-05-20T10:13:10.457Z,1112.00
2023-05-20T10:14:10.460Z,1112.00
2023-05-20T10:15:10.069Z,1168.00
2023-05-20T10:16:10.082Z,1220.00
2023-05-20T10:17:10.164Z,1284.00
2023-05-20T10:18:10.053Z,1316.00
2023-05-20T10:19:10.077Z,1336.00
2023-05-20T10:20:10.025Z,1368.00
2023-05-20T10:21:10.469Z,1616.00
2023-05-20T10:22:10.485Z,1256.00
2023-05-20T10:23:10.469Z,1224.00
2023-05-20T10:24:10.468Z,1252.00
2023-05-20T10:25:09.972Z,1292.00
2023-05-20T10:26:09.942Z,1296.00
2023-05-20T10:27:10.481Z,1232.00
2023-05-20T10:28:09.921Z,1240.00
2023-05-20T10:29:11.650Z,1224.00
2023-05-20T10:30:09.908Z,1196.00
2023-05-20T10:31:09.885Z,1152.00
2023-05-20T10:32:09.880Z,1124.00
2023-05-20T10:33:09.967Z,1096.00
2023-05-20T10:34:09.836Z,1096.00
2023-05-20T10:35:10.175Z,1128.00
2023-05-20T10:36:10.159Z,1132.00
2023-05-20T10:37:10.194Z,1108.00
2023-05-20T10:38:09.793Z,1072.00
2023-05-20T10:39:09.828Z,1044.00
2023-05-20T10:40:09.788Z,988.00
2023-05-20T10:41:09.803Z,940.00
2023-05-20T10:42:09.773Z,916.00
2023-05-20T10:43:09.757Z,948.00
2023-05-20T10:44:09.745Z,988.00
2023-05-20T10:45:09.745Z,1008.00
2023-05-20T10:46:17.069Z,980.00
2023-05-20T10:48:09.774Z,952.00
2023-05-20T10:49:09.738Z,912.00
2023-05-20T10:50:09.657Z,900.00
2023-05-20T10:51:10.308Z,932.00
2023-05-20T10:52:10.331Z,976.00
2023-05-20T10:53:15.677Z,972.00
2023-05-20T10:54:10.618Z,984.00
2023-05-20T10:55:09.737Z,1008.00
2023-05-20T10:56:09.581Z,1052.00
2023-05-20T10:57:09.589Z,1084.00
2023-05-20T10:58:09.588Z,1112.00
2023-05-20T10:59:10.492Z,1148.00
2023-05-20T11:00:10.491Z,1200.00
2023-05-20T11:01:09.570Z,1444.00
2023-05-20T11:02:09.529Z,1268.00
2023-05-20T11:03:09.602Z,1300.00
2023-05-20T11:04:09.721Z,1328.00
2023-05-20T11:05:09.509Z,1428.00
2023-05-20T11:06:09.490Z,1428.00
2023-05-20T11:07:09.529Z,1520.00
2023-05-20T11:08:20.510Z,1472.00
2023-05-20T11:09:10.464Z,1388.00
2023-05-20T11:10:09.527Z,1376.00
2023-05-20T11:11:09.444Z,1356.00
2023-05-20T11:12:09.407Z,1420.00
2023-05-20T11:13:09.475Z,1440.00
2023-05-20T11:14:09.417Z,1360.00
2023-05-20T11:15:09.420Z,1496.00
2023-05-20T11:16:09.611Z,1520.00
2023-05-20T11:17:09.666Z,1312.00
2023-05-20T11:18:09.375Z,1560.00
2023-05-20T11:19:09.485Z,1348.00
2023-05-20T11:20:09.358Z,1372.00
2023-05-20T11:21:09.333Z,1544.00
2023-05-20T11:22:09.308Z,1496.00
2023-05-20T11:23:09.538Z,1392.00
2023-05-20T11:24:09.328Z,1392.00
2023-05-20T11:25:09.326Z,1124.00
2023-05-20T11:26:09.290Z,1100.00
2023-05-20T11:27:09.521Z,948.00
2023-05-20T11:28:09.247Z,924.00
2023-05-20T11:29:09.255Z,976.00
2023-05-20T11:30:09.233Z,1080.00
2023-05-20T11:31:09.231Z,1072.00
2023-05-20T11:32:09.564Z,1020.00
2023-05-20T11:33:09.198Z,924.00
2023-05-20T11:34:09.202Z,1020.00
2023-05-20T11:35:09.186Z,1020.00
2023-05-20T11:36:19.942Z,1076.00
2023-05-20T11:37:10.542Z,1128.00
2023-05-20T11:38:09.123Z,1160.00
2023-05-20T11:39:09.531Z,1160.00
2023-05-20T11:40:09.128Z,1192.00
2023-05-20T11:41:09.136Z,1212.00
2023-05-20T11:42:09.076Z,1196.00
2023-05-20T11:43:09.145Z,1096.00
2023-05-20T11:44:09.145Z,1056.00
2023-05-20T11:45:09.063Z,1188.00
2023-05-20T11:46:09.079Z,1044.00
2023-05-20T11:47:09.051Z,920.00
2023-05-20T11:48:09.064Z,912.00
2023-05-20T11:49:09.025Z,912.00
2023-05-20T11:50:09.537Z,904.00
2023-05-20T11:51:08.986Z,880.00
2023-05-20T11:52:08.962Z,884.00
2023-05-20T11:53:08.971Z,920.00
2023-05-20T11:54:08.954Z,872.00
2023-05-20T11:55:09.541Z,1064.00
2023-05-20T11:56:08.935Z,904.00
2023-05-20T11:57:08.945Z,960.00
2023-05-20T11:58:08.893Z,1120.00
2023-05-20T11:59:09.562Z,928.00
2023-05-20T12:00:08.870Z,912.00
2023-05-20T12:01:20.857Z,932.00
2023-05-20T12:02:09.978Z,940.00
2023-05-20T12:03:09.051Z,960.00
2023-05-20T12:04:08.994Z,948.00
2023-05-20T12:05:08.865Z,944.00
2023-05-20T12:06:09.065Z,912.00
2023-05-20T12:07:08.835Z,832.00
2023-05-20T12:08:08.822Z,780.00
2023-05-20T12:09:09.192Z,748.00
2023-05-20T12:10:08.797Z,712.00
2023-05-20T12:11:09.269Z,720.00
2023-05-20T12:12:08.736Z,760.00
2023-05-20T12:13:08.769Z,780.00
2023-05-20T12:14:08.795Z,808.00
2023-05-20T12:15:08.742Z,812.00
2023-05-20T12:16:08.735Z,780.00
2023-05-20T12:17:08.701Z,788.00
2023-05-20T12:18:08.713Z,816.00
2023-05-20T12:19:08.800Z,848.00
2023-05-20T12:20:08.726Z,900.00
2023-05-20T12:21:08.991Z,892.00
2023-05-20T12:22:08.625Z,896.00
2023-05-20T12:23:08.749Z,896.00
2023-05-20T12:24:08.710Z,812.00
2023-05-20T12:25:08.631Z,860.00
2023-05-20T12:26:08.619Z,880.00
2023-05-20T12:27:08.594Z,856.00
2023-05-20T12:28:08.551Z,884.00
2023-05-20T12:29:08.572Z,956.00
2023-05-20T12:30:08.539Z,960.00
2023-05-20T12:31:08.601Z,1000.00
2023-05-20T12:32:08.560Z,980.00
2023-05-20T12:33:08.574Z,956.00